Time;durP1;ratioP1;P1;durP2;ratioP2;P2;SDS_P1;SDS_P2;PMS_P1;PMS_P2;Temp;Humidity;BMP_temperature;BMP_pressure;BME280_temperature;BME280_humidity;BME280_pressure;Samples;Min_cycle;Max_cycle;Signal;HPM_P1;HPM_P2
2021/04/17 00:01:14;;;;;;;9.38;3.90;;;;;;;6.00;58.24;102275.25;5017721;28;20125;-65
2021/04/17 00:03:40;;;;;;;9.00;3.72;;;;;;;6.04;58.37;102271.03;5026415;28;20045;-65
2021/04/17 00:06:06;;;;;;;10.32;4.47;;;;;;;5.97;58.53;102271.69;5008063;28;20100;-65
2021/04/17 00:08:33;;;;;;;12.40;3.92;;;;;;;5.90;59.20;102274.13;5016278;28;20047;-65
2021/04/17 00:14:24;;;;;;;6.78;3.30;;;;;;;5.84;58.84;102278.28;5010655;28;20426;-63
2021/04/17 00:16:50;;;;;;;9.02;4.10;;;;;;;5.86;58.91;102272.31;5014751;28;20482;-65
2021/04/17 00:19:16;;;;;;;8.68;3.30;;;;;;;5.80;59.02;102276.44;5021976;28;20057;-66
2021/04/17 00:21:42;;;;;;;9.38;3.35;;;;;;;5.78;59.44;102266.06;5027185;28;20049;-65
2021/04/17 00:24:10;;;;;;;9.73;3.55;;;;;;;5.68;59.61;102277.88;5010394;28;20045;-66
2021/04/17 00:26:36;;;;;;;10.73;4.50;;;;;;;5.67;59.54;102265.81;5025979;28;20049;-65
2021/04/17 00:29:02;;;;;;;7.97;3.78;;;;;;;5.70;59.17;102273.63;5027549;28;20049;-66
2021/04/17 00:34:50;;;;;;;8.50;3.40;;;;;;;5.75;58.77;102268.56;5017506;28;20075;-65
2021/04/17 00:37:16;;;;;;;9.73;3.80;;;;;;;5.82;59.24;102261.84;5022455;28;20046;-66
2021/04/17 00:39:43;;;;;;;7.97;3.25;;;;;;;5.80;58.73;102267.00;5017404;28;20495;-66
2021/04/17 00:42:09;;;;;;;9.95;3.85;;;;;;;5.71;59.03;102261.59;5004589;28;20046;-66
2021/04/17 00:44:36;;;;;;;6.45;3.38;;;;;;;5.73;59.15;102260.78;5015599;28;20056;-66
2021/04/17 00:50:24;;;;;;;10.32;2.97;;;;;;;5.69;59.20;102263.25;4999486;28;20045;-66
2021/04/17 00:52:51;;;;;;;8.48;3.10;;;;;;;5.59;60.22;102260.44;5030156;28;20093;-66
2021/04/17 00:55:17;;;;;;;6.75;3.35;;;;;;;5.64;59.97;102257.13;5033211;28;20057;-67
2021/04/17 00:57:43;;;;;;;11.77;4.28;;;;;;;5.57;59.75;102262.09;5027460;28;20077;-66
2021/04/17 01:00:11;;;;;;;9.07;2.85;;;;;;;5.55;59.55;102260.31;5016723;28;20045;-65
2021/04/17 01:02:42;;;;;;;7.32;3.15;;;;;;;5.53;60.44;102257.72;5016927;28;20053;-66
2021/04/17 01:05:11;;;;;;;8.05;3.22;;;;;;;5.52;59.99;102258.53;5011480;28;20048;-66
2021/04/17 01:07:42;;;;;;;9.27;3.90;;;;;;;5.50;59.86;102261.91;5008444;28;20408;-66
2021/04/17 01:10:14;;;;;;;9.13;3.97;;;;;;;5.50;59.84;102259.31;5004644;28;20077;-66
2021/04/17 01:12:45;;;;;;;12.90;3.75;;;;;;;5.34;60.66;102261.50;5022707;28;20053;-66
2021/04/17 01:15:14;;;;;;;9.48;3.50;;;;;;;5.40;60.50;102253.06;5007425;28;20050;-66
2021/04/17 01:17:44;;;;;;;7.93;3.47;;;;;;;5.33;60.82;102259.75;5008927;28;20042;-66
2021/04/17 01:20:16;;;;;;;9.05;3.80;;;;;;;5.29;60.79;102255.34;5012733;28;20506;-66
2021/04/17 01:22:47;;;;;;;9.02;3.65;;;;;;;5.29;60.66;102253.63;5007446;28;20057;-66
2021/04/17 01:25:17;;;;;;;7.30;3.45;;;;;;;5.25;61.30;102250.94;5018907;28;20049;-66
2021/04/17 01:27:44;;;;;;;7.00;3.28;;;;;;;5.26;61.28;102258.69;5019776;28;20046;-66
2021/04/17 01:30:13;;;;;;;8.45;3.38;;;;;;;5.23;60.92;102253.47;5033382;28;20056;-66
2021/04/17 01:32:40;;;;;;;6.80;3.17;;;;;;;5.27;61.19;102252.72;5015481;28;20077;-66
2021/04/17 01:35:09;;;;;;;10.05;3.83;;;;;;;5.25;61.83;102256.94;5005170;28;20113;-66
2021/04/17 01:38:06;;;;;;;7.78;3.05;;;;;;;5.19;61.42;102254.22;5017331;28;20118;-66
2021/04/17 01:40:34;;;;;;;8.20;3.47;;;;;;;5.11;62.12;102251.41;5013126;28;20539;-66
2021/04/17 01:43:01;;;;;;;7.78;3.55;;;;;;;5.07;61.81;102256.44;5002992;28;20415;-66
2021/04/17 01:45:29;;;;;;;8.95;3.63;;;;;;;5.04;62.32;102257.25;5023267;28;20053;-67
2021/04/17 01:47:57;;;;;;;9.70;3.28;;;;;;;5.01;62.80;102264.03;5012268;28;20110;-66
2021/04/17 01:50:25;;;;;;;7.03;3.42;;;;;;;5.04;62.25;102248.66;5016665;28;20053;-66
2021/04/17 01:52:53;;;;;;;9.82;3.72;;;;;;;4.95;62.03;102252.69;5019025;28;20129;-66
2021/04/17 01:55:19;;;;;;;10.50;3.78;;;;;;;4.86;62.98;102260.16;5008730;28;20045;-66
2021/04/17 01:57:47;;;;;;;9.90;3.85;;;;;;;4.82;63.13;102255.75;5000731;28;20067;-65
2021/04/17 02:00:15;;;;;;;8.05;3.38;;;;;;;4.85;62.63;102249.81;5007676;28;20046;-66
2021/04/17 02:02:41;;;;;;;8.05;3.80;;;;;;;4.81;62.69;102257.44;5026083;28;20065;-66
2021/04/17 02:05:08;;;;;;;8.10;3.72;;;;;;;4.85;62.91;102250.66;5004160;28;20050;-66
2021/04/17 02:10:56;;;;;;;7.10;3.53;;;;;;;5.02;61.96;102246.00;4995849;28;20436;-65
2021/04/17 02:13:22;;;;;;;11.10;4.22;;;;;;;4.88;63.21;102244.75;5009671;28;20054;-66
2021/04/17 02:19:34;;;;;;;7.38;3.58;;;;;;;4.76;63.40;102242.66;4991085;28;20459;-66
2021/04/17 02:22:01;;;;;;;10.25;3.42;;;;;;;4.77;63.15;102247.00;5025541;28;20655;-65
2021/04/17 02:24:29;;;;;;;8.35;4.13;;;;;;;4.75;63.71;102230.59;5023884;28;20524;-66
2021/04/17 02:26:56;;;;;;;9.35;4.00;;;;;;;4.81;62.89;102233.38;5016940;28;20050;-66
2021/04/17 02:29:22;;;;;;;9.32;4.20;;;;;;;4.83;63.03;102231.72;5006996;28;20060;-65
2021/04/17 02:31:49;;;;;;;11.10;4.30;;;;;;;4.80;62.69;102242.81;5017068;28;20428;-66
2021/04/17 02:34:16;;;;;;;9.10;3.90;;;;;;;4.78;63.56;102241.00;5012721;28;20057;-66
2021/04/17 02:36:43;;;;;;;7.43;3.60;;;;;;;4.74;63.33;102245.22;5005971;28;20048;-66
2021/04/17 02:39:09;;;;;;;8.68;3.80;;;;;;;4.63;64.10;102239.75;5016026;28;20046;-66
2021/04/17 02:41:35;;;;;;;7.93;3.40;;;;;;;4.65;64.09;102234.63;5006417;28;20502;-66
2021/04/17 02:44:01;;;;;;;8.38;4.03;;;;;;;4.58;63.82;102232.72;4999140;28;20145;-65
2021/04/17 02:46:27;;;;;;;6.78;3.42;;;;;;;4.62;64.35;102232.84;5015449;28;20049;-65
2021/04/17 02:48:53;;;;;;;7.53;3.90;;;;;;;4.63;64.09;102238.88;5015492;28;20128;-66
2021/04/17 02:51:19;;;;;;;9.30;3.97;;;;;;;4.56;64.08;102237.78;5015391;28;20483;-66
2021/04/17 02:53:46;;;;;;;7.55;3.40;;;;;;;4.52;64.01;102238.56;5013219;28;20053;-65
2021/04/17 02:56:12;;;;;;;9.45;4.28;;;;;;;4.46;64.05;102241.81;5007106;28;20053;-67
2021/04/17 02:58:38;;;;;;;10.73;3.92;;;;;;;4.52;64.08;102243.72;5013241;28;20057;-66
2021/04/17 03:01:04;;;;;;;10.13;4.10;;;;;;;4.40;64.33;102241.63;5006509;28;20052;-65
2021/04/17 03:03:29;;;;;;;7.85;3.88;;;;;;;4.42;64.51;102237.38;5006706;28;20050;-65
2021/04/17 03:05:55;;;;;;;9.25;3.97;;;;;;;4.44;64.63;102240.03;5015943;28;20114;-65
2021/04/17 03:08:21;;;;;;;9.05;3.75;;;;;;;4.36;64.83;102250.94;5003355;28;20191;-65
2021/04/17 03:10:49;;;;;;;10.77;3.75;;;;;;;4.34;65.24;102250.03;5004184;28;20195;-66
2021/04/17 03:13:15;;;;;;;9.82;4.15;;;;;;;4.32;64.80;102243.97;5013062;28;20045;-66
2021/04/17 03:15:41;;;;;;;9.10;4.60;;;;;;;4.38;65.08;102243.28;5003421;28;20052;-66
2021/04/17 03:18:07;;;;;;;9.88;3.88;;;;;;;4.38;64.95;102239.81;5003256;28;20041;-65
2021/04/17 03:20:34;;;;;;;11.77;4.38;;;;;;;4.34;64.35;102239.72;5009401;28;20451;-65
2021/04/17 03:23:00;;;;;;;7.32;3.60;;;;;;;4.31;64.80;102242.22;5003333;28;20099;-66
2021/04/17 03:25:26;;;;;;;8.25;3.28;;;;;;;4.33;64.97;102239.69;5014605;28;20062;-66
2021/04/17 03:27:53;;;;;;;8.77;3.70;;;;;;;4.31;65.17;102243.91;4997903;28;20045;-66
2021/04/17 03:30:26;;;;;;;13.30;3.50;;;;;;;4.23;65.79;102242.78;5012419;28;20045;-64
2021/04/17 03:32:52;;;;;;;11.00;4.53;;;;;;;4.19;65.12;102241.81;5009953;28;20530;-65
2021/04/17 03:35:18;;;;;;;12.45;3.65;;;;;;;4.17;65.57;102244.38;5002871;28;20045;-66
2021/04/17 03:37:44;;;;;;;7.65;3.65;;;;;;;4.16;65.76;102242.63;5007147;28;20042;-66
2021/04/17 03:40:11;;;;;;;10.13;3.95;;;;;;;4.21;65.87;102250.50;5016049;28;20124;-66
2021/04/17 03:42:37;;;;;;;8.73;4.10;;;;;;;4.22;65.63;102244.50;5021574;28;20053;-66
2021/04/17 03:45:06;;;;;;;10.88;3.63;;;;;;;4.15;66.09;102250.28;5019582;28;20120;-66
2021/04/17 03:47:33;;;;;;;7.63;3.60;;;;;;;4.08;65.91;102248.34;5014116;28;20046;-65
2021/04/17 03:49:59;;;;;;;8.90;4.30;;;;;;;4.06;66.45;102256.03;5030534;28;20060;-66
2021/04/17 03:52:25;;;;;;;12.68;4.45;;;;;;;4.15;66.54;102258.00;5023027;28;20060;-65
2021/04/17 03:54:51;;;;;;;11.63;4.20;;;;;;;4.01;66.09;102258.44;5012622;28;20439;-65
2021/04/17 03:57:18;;;;;;;8.98;3.63;;;;;;;3.95;66.59;102253.09;5027473;28;20124;-66
2021/04/17 03:59:45;;;;;;;9.02;3.83;;;;;;;3.93;66.12;102253.88;5031050;28;20045;-66
2021/04/17 04:02:12;;;;;;;11.98;4.10;;;;;;;3.86;66.56;102253.69;5010514;28;20139;-64
2021/04/17 04:04:38;;;;;;;8.45;3.67;;;;;;;3.90;66.61;102259.78;5019860;28;20045;-66
2021/04/17 04:07:04;;;;;;;10.52;3.90;;;;;;;3.87;66.83;102254.53;5012392;28;20046;-66
2021/04/17 04:09:31;;;;;;;9.18;4.05;;;;;;;3.76;66.84;102255.88;5023386;28;20046;-66
2021/04/17 04:11:57;;;;;;;11.77;4.50;;;;;;;3.78;67.11;102262.84;5015668;28;20058;-66
2021/04/17 04:14:23;;;;;;;12.40;4.55;;;;;;;3.77;67.79;102257.63;5022181;28;20060;-66
2021/04/17 04:16:49;;;;;;;9.55;4.35;;;;;;;3.70;68.06;102262.56;5020149;28;20045;-66
2021/04/17 04:19:16;;;;;;;9.88;4.57;;;;;;;3.62;67.95;102257.97;5010230;28;20140;-66
2021/04/17 04:21:42;;;;;;;12.65;4.15;;;;;;;3.60;68.31;102260.50;5020612;28;20569;-66
2021/04/17 04:24:08;;;;;;;14.38;4.15;;;;;;;3.53;68.94;102258.56;5020465;28;20499;-66
2021/04/17 04:26:35;;;;;;;9.70;4.35;;;;;;;3.62;68.03;102271.75;5018776;28;20045;-66
2021/04/17 04:29:01;;;;;;;10.40;4.15;;;;;;;3.51;68.84;102266.19;5014127;28;20072;-66
2021/04/17 04:31:27;;;;;;;13.38;4.72;;;;;;;3.57;68.65;102270.69;5017033;28;20049;-66
2021/04/17 04:33:53;;;;;;;9.27;4.20;;;;;;;3.62;68.64;102271.75;5023650;28;20060;-65
2021/04/17 04:36:20;;;;;;;8.20;4.53;;;;;;;3.58;68.83;102264.72;5026454;28;20537;-66
2021/04/17 04:38:46;;;;;;;8.82;4.10;;;;;;;3.60;69.21;102270.81;5020377;28;20046;-66
2021/04/17 04:41:12;;;;;;;10.63;4.97;;;;;;;3.67;68.78;102272.75;5015581;28;20412;-66
2021/04/17 04:43:39;;;;;;;10.23;4.75;;;;;;;3.62;69.32;102274.31;5020397;28;20042;-65
2021/04/17 04:46:05;;;;;;;12.23;5.15;;;;;;;3.58;69.31;102275.00;5013459;28;20049;-65
2021/04/17 04:48:31;;;;;;;9.77;4.35;;;;;;;3.58;69.44;102270.75;5016425;28;20050;-66
2021/04/17 04:50:57;;;;;;;11.55;4.75;;;;;;;3.56;69.39;102274.09;5024791;28;20089;-66
2021/04/17 04:53:24;;;;;;;9.38;4.25;;;;;;;3.61;69.52;102275.13;5009800;28;20050;-66
2021/04/17 04:55:50;;;;;;;11.50;4.88;;;;;;;3.67;69.02;102277.91;5022169;28;20046;-66
2021/04/17 04:58:15;;;;;;;11.57;5.20;;;;;;;3.74;68.87;102281.56;5025547;28;20068;-66
2021/04/17 05:00:41;;;;;;;9.45;4.63;;;;;;;3.88;69.31;102282.03;5021743;28;20080;-66
2021/04/17 05:03:07;;;;;;;14.80;5.63;;;;;;;3.89;68.41;102278.63;5010021;28;20511;-66
2021/04/17 05:05:33;;;;;;;16.40;6.28;;;;;;;3.94;68.76;102279.69;5024178;28;20136;-65
2021/04/17 05:08:00;;;;;;;12.02;5.55;;;;;;;3.94;68.63;102278.78;5011531;28;20504;-66
2021/04/17 05:10:27;;;;;;;11.68;6.22;;;;;;;3.98;67.75;102276.38;5015039;28;20136;-66
2021/04/17 05:12:53;;;;;;;14.20;6.00;;;;;;;4.05;68.17;102278.31;5020149;28;20515;-66
2021/04/17 05:15:19;;;;;;;9.77;5.03;;;;;;;3.98;68.07;102278.94;5027837;28;20104;-66
2021/04/17 05:17:45;;;;;;;12.90;5.78;;;;;;;3.84;68.96;102270.75;5016470;28;20046;-66
2021/04/17 05:20:12;;;;;;;11.57;5.63;;;;;;;3.83;69.00;102275.88;5009710;28;20467;-66
2021/04/17 05:22:37;;;;;;;13.52;5.53;;;;;;;3.86;69.12;102274.25;5016135;28;20050;-66
2021/04/17 05:25:05;;;;;;;19.02;5.80;;;;;;;3.81;69.22;102274.94;5008807;28;20042;-65
2021/04/17 05:27:32;;;;;;;22.35;6.95;;;;;;;3.90;68.46;102280.38;5017102;28;20121;-65
2021/04/17 05:29:58;;;;;;;14.95;6.07;;;;;;;3.81;69.33;102283.50;5025066;28;20045;-65
2021/04/17 05:32:24;;;;;;;13.55;6.00;;;;;;;3.96;68.75;102285.72;5015751;28;20050;-65
2021/04/17 05:34:50;;;;;;;13.02;5.35;;;;;;;4.13;68.59;102278.56;5009724;28;20045;-65
2021/04/17 05:37:16;;;;;;;12.23;5.15;;;;;;;4.21;67.77;102283.97;5020849;28;20635;-66
2021/04/17 05:39:42;;;;;;;13.13;6.07;;;;;;;4.36;68.07;102284.44;5011074;28;20045;-66
2021/04/17 05:42:08;;;;;;;14.68;6.90;;;;;;;4.54;67.19;102279.81;5018551;28;20061;-66
2021/04/17 05:44:35;;;;;;;11.20;5.25;;;;;;;4.73;66.05;102282.13;5022448;28;20072;-66
2021/04/17 05:47:01;;;;;;;10.82;5.35;;;;;;;4.78;66.15;102275.41;5020266;28;20064;-66
2021/04/17 05:49:27;;;;;;;12.10;5.68;;;;;;;4.62;66.95;102276.66;5014520;28;20137;-66
2021/04/17 05:51:53;;;;;;;11.30;5.25;;;;;;;4.79;66.87;102282.28;5021315;28;20045;-66
2021/04/17 05:54:19;;;;;;;15.13;5.85;;;;;;;4.95;66.02;102278.47;5003829;28;20064;-65
2021/04/17 05:56:45;;;;;;;10.35;5.40;;;;;;;5.06;64.86;102272.75;5006704;28;20132;-67
2021/04/17 05:59:11;;;;;;;12.07;5.43;;;;;;;5.13;64.82;102278.13;5000674;28;20045;-67
2021/04/17 06:01:38;;;;;;;12.82;5.38;;;;;;;4.98;64.92;102275.13;5012732;22;20046;-65
2021/04/17 06:04:05;;;;;;;12.07;5.47;;;;;;;5.04;64.81;102271.84;4977209;28;20050;-65
2021/04/17 06:06:31;;;;;;;13.02;5.50;;;;;;;5.07;64.99;102271.91;4982433;28;20054;-63
2021/04/17 06:08:56;;;;;;;11.45;5.47;;;;;;;5.17;65.13;102273.94;4984281;28;20092;-65
2021/04/17 06:11:22;;;;;;;11.60;5.07;;;;;;;5.28;65.03;102285.41;4986016;28;20089;-65
2021/04/17 06:13:49;;;;;;;13.35;5.60;;;;;;;5.35;64.27;102276.16;4967530;28;20051;-65
2021/04/17 06:16:15;;;;;;;12.80;5.75;;;;;;;5.39;64.26;102283.13;4963184;28;20047;-66
2021/04/17 06:18:42;;;;;;;10.82;5.22;;;;;;;5.47;64.48;102285.91;4969403;28;20043;-64
2021/04/17 06:21:08;;;;;;;11.65;5.32;;;;;;;5.50;63.96;102288.59;4971676;28;20524;-65
2021/04/17 06:23:35;;;;;;;13.50;5.65;;;;;;;5.45;64.24;102285.88;4967763;28;20047;-67
2021/04/17 06:26:01;;;;;;;15.82;6.43;;;;;;;5.51;64.34;102290.34;4948277;28;20047;-63
2021/04/17 06:28:28;;;;;;;14.73;5.30;;;;;;;5.55;64.05;102291.31;4951276;28;20511;-65
2021/04/17 06:30:54;;;;;;;9.82;4.70;;;;;;;5.57;64.07;102280.16;4959679;28;20136;-62
2021/04/17 06:33:20;;;;;;;14.70;5.97;;;;;;;5.72;64.05;102286.59;4961128;28;20055;-67
2021/04/17 06:35:47;;;;;;;16.33;6.57;;;;;;;5.71;63.31;102288.28;4965128;28;20069;-65
2021/04/17 06:38:14;;;;;;;11.73;4.82;;;;;;;5.68;64.53;102282.16;4966265;28;20149;-62
2021/04/17 06:40:41;;;;;;;16.33;5.50;;;;;;;5.64;64.37;102285.53;4972556;28;20559;-67
2021/04/17 06:43:07;;;;;;;15.00;5.45;;;;;;;5.65;64.72;102282.06;4968662;28;20043;-66
2021/04/17 06:45:35;;;;;;;13.55;5.53;;;;;;;5.48;64.43;102284.22;4963165;28;20055;-65
2021/04/17 06:51:28;;;;;;;9.15;5.03;;;;;;;5.54;65.24;102282.66;4957663;28;20141;-65
2021/04/17 06:53:55;;;;;;;11.90;5.15;;;;;;;5.50;64.69;102285.13;4964416;28;20685;-65
2021/04/17 06:56:23;;;;;;;10.80;5.15;;;;;;;5.37;65.07;102287.41;4969142;28;20066;-65
2021/04/17 06:58:50;;;;;;;12.10;4.65;;;;;;;5.34;66.19;102286.44;4971890;28;20112;-63
2021/04/17 07:01:16;;;;;;;13.65;5.25;;;;;;;5.49;65.56;102284.25;4965629;28;20054;-66
2021/04/17 07:03:42;;;;;;;12.95;5.40;;;;;;;5.41;65.14;102283.19;4970252;28;20137;-67
2021/04/17 07:06:08;;;;;;;13.73;6.28;;;;;;;5.32;66.15;102282.94;4970805;28;20046;-63
2021/04/17 07:08:38;;;;;;;12.18;5.30;;;;;;;5.40;66.00;102278.84;4968319;28;20057;-64
2021/04/17 07:11:04;;;;;;;11.52;5.35;;;;;;;5.38;66.10;102284.00;4968457;28;20051;-63
2021/04/17 07:13:30;;;;;;;11.70;4.90;;;;;;;5.32;66.27;102275.19;4971907;28;20055;-64
2021/04/17 07:16:06;;;;;;;17.23;5.20;;;;;;;5.35;66.33;102276.16;4977706;28;20069;-65
2021/04/17 07:18:33;;;;;;;14.20;4.70;;;;;;;5.38;66.37;102273.66;4982636;28;20134;-66
2021/04/17 07:21:22;;;;;;;9.85;4.65;;;;;;;5.47;67.14;102278.19;4977401;28;20527;-66
2021/04/17 07:27:54;;;;;;;10.35;4.30;;;;;;;5.56;66.19;102270.69;4972464;28;20527;-64
2021/04/17 07:33:42;;;;;;;15.68;5.00;;;;;;;5.78;66.30;102276.41;4962071;28;20094;-64
2021/04/17 07:42:54;;;;;;;8.65;4.40;;;;;;;6.07;64.83;102273.69;4967128;28;20100;-65
2021/04/17 07:48:43;;;;;;;12.57;5.60;;;;;;;6.26;64.79;102269.84;4966723;28;20057;-65
2021/04/17 07:51:09;;;;;;;13.98;5.50;;;;;;;6.46;63.94;102270.31;4979564;28;20223;-67
2021/04/17 07:53:38;;;;;;;13.38;5.00;;;;;;;6.61;63.29;102263.75;4962292;28;20496;-64
2021/04/17 07:56:23;;;;;;;18.08;5.30;;;;;;;6.65;63.07;102263.84;4974902;28;20060;-66
2021/04/17 07:58:52;;;;;;;12.48;4.20;;;;;;;6.66;63.04;102264.69;4954903;28;20167;-67
2021/04/17 08:01:19;;;;;;;13.23;5.40;;;;;;;6.61;62.83;102263.75;4961325;28;20051;-68
2021/04/17 08:03:48;;;;;;;15.73;5.53;;;;;;;6.63;63.61;102260.34;4963011;28;20060;-68
2021/04/17 08:06:15;;;;;;;20.25;6.53;;;;;;;6.66;62.73;102262.13;4966581;28;20052;-67
2021/04/17 08:08:42;;;;;;;19.92;6.60;;;;;;;6.66;62.75;102262.13;4966618;28;20047;-67
2021/04/17 08:11:08;;;;;;;16.73;7.18;;;;;;;6.68;63.92;102260.44;4973179;28;20053;-67
2021/04/17 08:13:37;;;;;;;15.50;6.88;;;;;;;6.75;63.69;102261.44;4967186;28;20071;-68
2021/04/17 08:16:04;;;;;;;17.30;6.38;;;;;;;6.89;63.32;102256.56;4962077;28;20051;-67
2021/04/17 08:18:30;;;;;;;17.17;8.07;;;;;;;7.04;62.94;102262.03;4964901;28;20049;-67
2021/04/17 08:20:59;;;;;;;17.00;7.95;;;;;;;7.09;62.96;102252.66;4960192;28;20448;-68
2021/04/17 08:23:27;;;;;;;15.65;7.32;;;;;;;7.25;62.17;102255.53;4964668;28;20051;-67
2021/04/17 08:25:54;;;;;;;16.55;7.38;;;;;;;7.15;62.24;102251.91;4966878;28;20061;-68
2021/04/17 08:28:23;;;;;;;12.80;6.70;;;;;;;7.19;62.35;102256.28;4965397;28;20047;-67
2021/04/17 08:30:49;;;;;;;14.25;5.82;;;;;;;7.12;62.60;102257.03;4962113;28;20054;-65
2021/04/17 08:33:44;;;;;;;11.30;5.05;;;;;;;7.23;60.90;102249.50;4970648;28;20072;-71
2021/04/17 08:36:39;;;;;;;14.82;5.97;;;;;;;7.23;60.86;102246.91;4970142;28;20051;-68
2021/04/17 08:39:44;;;;;;;13.13;5.50;;;;;;;7.14;60.74;102245.00;4975301;28;20063;-71
2021/04/17 08:42:15;;;;;;;13.00;6.03;;;;;;;7.15;61.43;102239.84;4971994;28;20051;-68
2021/04/17 08:44:42;;;;;;;13.98;5.13;;;;;;;7.21;61.08;102230.47;4976318;28;20061;-69
2021/04/17 08:47:10;;;;;;;14.80;5.05;;;;;;;7.36;60.64;102235.06;4976707;28;20047;-70
2021/04/17 08:49:38;;;;;;;13.75;4.75;;;;;;;7.51;58.46;102237.91;4969867;28;20061;-68
2021/04/17 08:52:22;;;;;;;10.60;4.70;;;;;;;7.64;59.74;102241.56;4964546;28;20046;-67
2021/04/17 08:55:13;;;;;;;16.33;5.53;;;;;;;7.63;60.31;102238.13;4961824;28;20055;-67
2021/04/17 08:57:39;;;;;;;16.75;4.75;;;;;;;7.74;61.04;102234.84;4971506;28;20046;-66
2021/04/17 09:00:07;;;;;;;11.40;4.13;;;;;;;7.93;60.09;102228.25;4968677;28;20171;-66
2021/04/17 09:02:45;;;;;;;11.68;4.10;;;;;;;8.13;59.58;102231.16;4977156;28;20058;-68
2021/04/17 09:05:14;;;;;;;15.23;4.20;;;;;;;8.15;58.62;102236.34;4981430;28;20070;-68
2021/04/17 09:07:44;;;;;;;15.05;5.47;;;;;;;8.18;58.70;102233.81;4977084;28;20058;-70
2021/04/17 09:10:32;;;;;;;11.48;4.78;;;;;;;8.11;59.44;102234.56;4984516;28;20050;-69
2021/04/17 09:16:37;;;;;;;9.52;4.00;;;;;;;8.28;56.21;102224.47;4978469;28;20469;-71
2021/04/17 09:22:51;;;;;;;10.75;4.40;;;;;;;8.48;57.13;102227.34;4965576;28;20045;-62
2021/04/17 09:25:41;;;;;;;10.48;3.67;;;;;;;8.41;56.01;102221.16;4978969;28;20050;-64
2021/04/17 09:28:07;;;;;;;10.63;4.00;;;;;;;8.39;56.84;102225.47;4974756;28;20039;-63
2021/04/17 09:30:33;;;;;;;9.20;3.28;;;;;;;8.48;57.21;102232.53;4983550;28;20737;-65
2021/04/17 09:33:00;;;;;;;9.57;3.45;;;;;;;8.47;57.57;102218.72;4967090;28;20062;-62
2021/04/17 09:35:28;;;;;;;9.57;3.58;;;;;;;8.51;57.35;102220.47;4982965;28;20471;-65
2021/04/17 09:38:04;;;;;;;10.30;4.13;;;;;;;8.59;58.29;102223.19;4973855;28;20133;-66
2021/04/17 09:40:33;;;;;;;8.23;3.17;;;;;;;8.69;55.22;102211.19;4973354;28;20435;-68
2021/04/17 09:42:59;;;;;;;8.88;3.65;;;;;;;8.78;55.54;102216.50;4969923;28;20046;-63
2021/04/17 09:45:31;;;;;;;12.23;3.38;;;;;;;8.94;55.58;102217.53;4975826;28;20054;-64
2021/04/17 09:47:58;;;;;;;13.25;3.65;;;;;;;9.01;55.09;102214.19;4961361;28;20043;-61
2021/04/17 09:50:25;;;;;;;16.48;4.10;;;;;;;9.06;54.51;102202.97;4973737;28;20117;-65
2021/04/17 09:52:52;;;;;;;8.95;3.05;;;;;;;9.16;53.57;102208.28;4967255;28;20159;-64
2021/04/17 09:55:19;;;;;;;11.55;4.05;;;;;;;9.23;55.04;102201.44;4977500;28;20054;-65
2021/04/17 09:57:46;;;;;;;10.70;3.30;;;;;;;9.22;52.72;102202.28;4971300;28;20101;-64
2021/04/17 10:00:13;;;;;;;6.88;2.72;;;;;;;9.14;51.28;102199.59;4966867;28;20078;-66
2021/04/17 10:02:40;;;;;;;8.30;3.00;;;;;;;9.22;52.02;102197.09;4972411;28;20488;-63
2021/04/17 10:05:08;;;;;;;11.15;3.13;;;;;;;9.22;51.83;102185.81;4979263;28;20766;-65
2021/04/17 10:07:40;;;;;;;7.68;2.90;;;;;;;9.29;50.21;102180.72;4977726;28;20057;-65
2021/04/17 10:10:08;;;;;;;8.15;2.50;;;;;;;9.30;50.34;102178.97;4977349;28;20067;-65
2021/04/17 10:12:47;;;;;;;9.05;3.78;;;;;;;9.31;51.71;102179.00;4982138;28;20082;-64
2021/04/17 10:15:23;;;;;;;10.75;3.00;;;;;;;9.42;53.01;102176.50;4970478;28;20096;-64
2021/04/17 10:17:50;;;;;;;15.98;2.95;;;;;;;9.52;52.46;102166.19;4978695;28;20054;-64
2021/04/17 10:20:17;;;;;;;12.35;3.15;;;;;;;9.47;53.34;102172.22;4983857;28;20109;-64
2021/04/17 10:22:50;;;;;;;11.27;3.45;;;;;;;9.49;53.25;102167.03;4975078;28;20526;-63
2021/04/17 10:25:32;;;;;;;9.18;3.65;;;;;;;9.67;52.65;102153.31;4966797;28;20046;-65
2021/04/17 10:31:21;;;;;;;10.23;2.95;;;;;;;9.87;51.56;102152.59;4961708;28;20077;-64
2021/04/17 10:33:48;;;;;;;7.00;2.88;;;;;;;9.90;50.65;102147.41;4977630;28;20050;-65
2021/04/17 10:36:19;;;;;;;10.02;2.78;;;;;;;9.84;50.81;102155.16;4978997;28;20049;-66
2021/04/17 10:38:45;;;;;;;8.85;3.08;;;;;;;9.92;50.36;102138.78;4977234;28;20081;-65
2021/04/17 10:41:18;;;;;;;12.40;3.65;;;;;;;10.01;52.42;102139.69;4977268;28;20058;-65
2021/04/17 10:43:44;;;;;;;12.60;4.03;;;;;;;10.32;52.04;102143.31;4975305;28;20475;-65
2021/04/17 10:46:09;;;;;;;11.10;3.20;;;;;;;10.57;50.58;102133.03;4967335;28;20046;-67
2021/04/17 10:48:44;;;;;;;11.30;2.60;;;;;;;10.53;47.80;102141.69;4984138;28;20127;-66
2021/04/17 10:55:13;;;;;;;12.55;2.90;;;;;;;10.51;45.66;102138.19;4974056;28;20100;-65
2021/04/17 11:01:02;;;;;;;9.90;2.97;;;;;;;10.39;47.17;102133.81;4959464;28;20034;-64
2021/04/17 11:03:31;;;;;;;11.50;2.72;;;;;;;10.13;46.94;102125.88;4969115;28;20050;-61
2021/04/17 11:05:58;;;;;;;8.70;3.10;;;;;;;10.15;47.37;102129.34;4978913;28;20042;-64
2021/04/17 11:08:26;;;;;;;11.13;3.30;;;;;;;10.38;46.78;102117.34;4980040;28;20061;-64
2021/04/17 11:10:53;;;;;;;15.50;3.42;;;;;;;10.43;46.67;102122.59;4977524;28;20042;-64
2021/04/17 11:13:30;;;;;;;11.40;3.88;;;;;;;10.48;47.51;102113.06;4976009;28;20077;-66
2021/04/17 11:15:56;;;;;;;9.93;3.00;;;;;;;10.51;48.05;102102.66;4972628;28;20057;-65
2021/04/17 11:18:22;;;;;;;12.23;3.65;;;;;;;10.78;47.49;102100.13;4979415;28;20058;-64
2021/04/17 11:20:54;;;;;;;11.57;3.53;;;;;;;11.09;47.76;102100.16;4975960;28;20047;-65
2021/04/17 11:23:43;;;;;;;8.40;3.30;;;;;;;10.98;46.37;102103.59;4976157;28;20124;-63
2021/04/17 11:26:13;;;;;;;7.35;2.90;;;;;;;10.79;46.99;102096.63;4972207;28;20077;-65
2021/04/17 11:28:41;;;;;;;8.75;3.35;;;;;;;10.85;46.43;102097.53;4963724;28;20051;-66
2021/04/17 11:31:08;;;;;;;9.60;2.90;;;;;;;10.57;46.27;102107.88;4966938;28;20056;-66
2021/04/17 11:33:34;;;;;;;8.40;3.55;;;;;;;10.62;46.59;102101.81;4977475;28;20515;-64
2021/04/17 11:36:00;;;;;;;11.40;3.50;;;;;;;10.63;46.75;102095.75;4974871;28;20057;-65
2021/04/17 11:38:27;;;;;;;9.52;3.30;;;;;;;10.67;46.57;102097.50;4971413;28;20056;-64
2021/04/17 11:40:54;;;;;;;8.38;3.45;;;;;;;10.68;46.17;102088.81;4974721;28;20093;-65
2021/04/17 11:43:20;;;;;;;11.10;3.55;;;;;;;10.70;46.83;102085.34;4975842;28;20159;-64
2021/04/17 11:45:46;;;;;;;7.78;3.45;;;;;;;10.82;46.52;102084.53;4976179;28;20146;-65
2021/04/17 11:48:12;;;;;;;8.07;2.80;;;;;;;11.01;45.22;102084.53;4974976;28;20141;-64
2021/04/17 11:50:39;;;;;;;8.15;3.45;;;;;;;10.91;44.01;102086.25;4979250;28;20450;-64
2021/04/17 11:53:05;;;;;;;15.20;3.55;;;;;;;10.91;44.02;102081.03;4964277;28;20046;-67
2021/04/17 11:55:32;;;;;;;15.30;4.40;;;;;;;10.96;44.23;102081.03;4978505;28;20046;-66
2021/04/17 11:57:59;;;;;;;13.15;4.22;;;;;;;11.12;43.41;102077.59;4973668;28;20395;-65
2021/04/17 12:00:25;;;;;;;7.93;3.20;;;;;;;11.14;44.57;102073.25;4960772;28;20059;-67
2021/04/17 12:02:51;;;;;;;9.32;3.70;;;;;;;11.23;42.73;102076.72;4966730;28;20046;-65
2021/04/17 12:05:17;;;;;;;9.15;3.45;;;;;;;11.20;42.92;102078.47;4973423;28;20054;-64
2021/04/17 12:07:43;;;;;;;12.07;3.25;;;;;;;11.41;42.98;102068.91;4973685;28;20125;-65
2021/04/17 12:10:10;;;;;;;10.60;3.67;;;;;;;11.42;43.17;102073.25;4974014;28;20133;-66
2021/04/17 12:12:36;;;;;;;9.88;3.38;;;;;;;11.55;42.71;102075.81;4971376;28;20042;-66
2021/04/17 12:18:24;;;;;;;11.13;3.65;;;;;;;11.23;43.40;102074.13;4964448;28;20138;-65
2021/04/17 12:20:50;;;;;;;13.20;5.05;;;;;;;11.28;43.10;102074.97;4964384;28;20182;-66
2021/04/17 12:23:16;;;;;;;10.75;4.05;;;;;;;11.52;43.19;102071.47;4967398;28;20167;-65
2021/04/17 12:25:42;;;;;;;13.95;4.80;;;;;;;12.00;42.56;102075.72;4974645;28;20046;-66
2021/04/17 12:31:30;;;;;;;10.98;4.00;;;;;;;12.03;41.28;102084.41;4959568;28;20041;-63
2021/04/17 12:33:57;;;;;;;10.73;3.80;;;;;;;11.80;41.92;102068.81;4968088;28;20460;-65